createdAt,value
2019-05-01T00:01:45.489Z,100319.97
2019-05-01T00:04:38.949Z,100314.48
2019-05-01T00:07:15.257Z,100318.05
2019-05-01T00:09:43.706Z,100315.20
2019-05-01T00:12:11.629Z,100317.55
2019-05-01T00:14:39.481Z,100318.61
2019-05-01T00:17:07.298Z,100326.36
2019-05-01T00:19:35.134Z,100320.98
2019-05-01T00:22:02.977Z,100307.83
2019-05-01T00:24:30.931Z,100309.69
2019-05-01T00:26:58.774Z,100309.13
2019-05-01T00:29:26.624Z,100307.78
2019-05-01T00:31:54.535Z,100312.52
2019-05-01T00:34:22.414Z,100308.19
2019-05-01T00:36:50.246Z,100307.73
2019-05-01T00:39:18.733Z,100296.56
2019-05-01T00:41:46.614Z,100289.88
2019-05-01T00:44:14.538Z,100292.70
2019-05-01T00:46:42.361Z,100288.31
2019-05-01T00:49:10.246Z,100289.88
2019-05-01T00:51:38.121Z,100295.59
2019-05-01T00:54:06.070Z,100285.66
2019-05-01T00:56:56.488Z,100289.24
2019-05-01T00:59:41.005Z,100282.34
2019-05-01T01:02:28.407Z,100289.95
2019-05-01T01:04:56.316Z,100285.69
2019-05-01T01:07:24.141Z,100272.38
2019-05-01T01:09:51.989Z,100272.25
2019-05-01T01:12:19.762Z,100274.54
2019-05-01T01:14:47.647Z,100269.72
2019-05-01T01:17:15.753Z,100269.95
2019-05-01T01:19:43.583Z,100273.94
2019-05-01T01:22:11.477Z,100278.13
2019-05-01T01:24:39.497Z,100279.71
2019-05-01T01:27:07.277Z,100272.59
2019-05-01T01:29:35.143Z,100269.87
2019-05-01T01:32:02.980Z,100267.26
2019-05-01T01:34:30.844Z,100265.76
2019-05-01T01:36:58.695Z,100262.47
2019-05-01T01:39:26.564Z,100265.31
2019-05-01T01:41:54.964Z,100268.53
2019-05-01T01:44:47.311Z,100265.89
2019-05-01T01:47:15.454Z,100264.09
2019-05-01T01:49:43.370Z,100259.83
2019-05-01T01:52:12.054Z,100263.05
2019-05-01T01:54:42.508Z,100264.14
2019-05-01T01:57:10.343Z,100261.01
2019-05-01T01:59:38.703Z,100265.48
2019-05-01T02:02:14.378Z,100248.61
2019-05-01T02:05:04.820Z,100242.81
2019-05-01T02:07:32.913Z,100242.23
2019-05-01T02:10:01.383Z,100236.05
2019-05-01T02:12:29.482Z,100248.25
2019-05-01T02:14:57.304Z,100254.41
2019-05-01T02:17:25.126Z,100247.00
2019-05-01T02:19:53.006Z,100257.86
2019-05-01T02:22:20.786Z,100246.66
2019-05-01T02:24:48.590Z,100242.86
2019-05-01T02:27:22.004Z,100238.17
2019-05-01T02:29:53.920Z,100240.28
2019-05-01T02:32:24.849Z,100243.23
2019-05-01T02:34:54.840Z,100236.19
2019-05-01T02:37:25.303Z,100229.34
2019-05-01T02:39:57.008Z,100229.70
2019-05-01T02:42:29.796Z,100237.18
2019-05-01T02:45:02.374Z,100234.64
2019-05-01T02:47:35.443Z,100233.05
2019-05-01T02:50:07.621Z,100237.11
2019-05-01T02:52:38.923Z,100230.70
2019-05-01T02:55:29.572Z,100234.00
2019-05-01T02:57:58.409Z,100229.42
2019-05-01T03:00:26.670Z,100231.53
2019-05-01T03:02:54.701Z,100226.96
2019-05-01T03:05:22.551Z,100222.95
2019-05-01T03:07:50.674Z,100217.13
2019-05-01T03:10:18.830Z,100222.23
2019-05-01T03:12:50.673Z,100214.95
2019-05-01T03:15:21.229Z,100213.31
2019-05-01T03:18:18.047Z,100217.66
2019-05-01T03:20:54.885Z,100215.65
2019-05-01T03:23:27.309Z,100212.48
2019-05-01T03:25:56.121Z,100212.25
2019-05-01T03:28:24.411Z,100214.53
2019-05-01T03:30:52.654Z,100209.42
2019-05-01T03:33:20.561Z,100208.38
2019-05-01T03:35:48.699Z,100212.13
2019-05-01T03:38:17.405Z,100203.00
2019-05-01T03:40:45.532Z,100199.71
2019-05-01T03:43:13.514Z,100203.25
2019-05-01T03:45:42.113Z,100198.23
2019-05-01T03:48:09.975Z,100199.59
2019-05-01T03:50:38.480Z,100200.08
2019-05-01T03:53:06.523Z,100208.83
2019-05-01T03:55:34.340Z,100200.31
2019-05-01T03:58:03.497Z,100195.42
2019-05-01T04:00:45.799Z,100192.55
2019-05-01T04:03:36.630Z,100196.84
2019-05-01T04:06:04.916Z,100197.72
2019-05-01T04:08:33.060Z,100199.96
2019-05-01T04:11:01.027Z,100204.49
2019-05-01T04:13:29.016Z,100204.41
2019-05-01T04:15:57.314Z,100205.95
2019-05-01T04:18:26.414Z,100206.47
2019-05-01T04:20:54.732Z,100208.69
2019-05-01T04:23:25.402Z,100209.88
2019-05-01T04:25:53.803Z,100210.52
2019-05-01T04:28:44.266Z,100211.36
2019-05-01T04:31:28.026Z,100216.81
2019-05-01T04:33:58.101Z,100215.41
2019-05-01T04:36:31.489Z,100225.67
2019-05-01T04:38:59.898Z,100225.16
2019-05-01T04:41:28.021Z,100216.13
2019-05-01T04:43:55.918Z,100208.02
2019-05-01T04:46:23.770Z,100217.36
2019-05-01T04:48:51.652Z,100218.76
2019-05-01T04:51:19.493Z,100217.25
2019-05-01T04:53:47.346Z,100233.39
2019-05-01T04:56:15.453Z,100234.88
2019-05-01T04:58:43.481Z,100236.33
2019-05-01T05:01:11.515Z,100234.15
2019-05-01T05:03:39.712Z,100232.64
2019-05-01T05:06:07.947Z,100236.22
2019-05-01T05:08:35.735Z,100232.13
2019-05-01T05:11:09.431Z,100232.05
2019-05-01T05:13:46.763Z,100239.12
2019-05-01T05:16:25.691Z,100242.88
2019-05-01T05:18:53.600Z,100244.98
2019-05-01T05:21:21.523Z,100236.34
2019-05-01T05:23:49.595Z,100244.42
2019-05-01T05:26:17.601Z,100233.64
2019-05-01T05:28:47.502Z,100244.02
2019-05-01T05:31:17.262Z,100235.29
2019-05-01T05:33:47.971Z,100242.44
2019-05-01T05:36:16.893Z,100237.16
2019-05-01T05:39:14.635Z,100226.39
2019-05-01T05:41:43.281Z,100226.98
2019-05-01T05:44:11.438Z,100228.50
2019-05-01T05:46:39.584Z,100230.45
2019-05-01T05:49:07.778Z,100229.94
2019-05-01T05:51:51.347Z,100220.02
2019-05-01T05:54:40.362Z,100224.33
2019-05-01T05:57:20.228Z,100218.67
2019-05-01T05:59:55.431Z,100219.44
2019-05-01T06:02:35.681Z,100227.53
2019-05-01T06:05:18.764Z,100231.14
2019-05-01T06:08:07.362Z,100229.81
2019-05-01T06:10:47.283Z,100227.34
2019-05-01T06:13:37.999Z,100225.00
2019-05-01T06:16:16.192Z,100224.92
2019-05-01T06:18:52.578Z,100227.40
2019-05-01T06:21:28.175Z,100226.77
2019-05-01T06:24:06.581Z,100231.53
2019-05-01T06:26:38.014Z,100228.06
2019-05-01T06:29:06.549Z,100225.94
2019-05-01T06:31:35.562Z,100227.13
2019-05-01T06:34:03.513Z,100235.78
2019-05-01T06:36:32.100Z,100230.44
2019-05-01T06:39:01.489Z,100235.95
2019-05-01T06:41:42.173Z,100233.45
2019-05-01T06:44:19.445Z,100238.67
2019-05-01T06:47:07.457Z,100233.58
2019-05-01T06:50:01.169Z,100233.95
2019-05-01T06:52:32.249Z,100231.52
2019-05-01T06:55:00.496Z,100225.89
2019-05-01T06:57:29.684Z,100217.19
2019-05-01T07:00:03.130Z,100216.09
2019-05-01T07:02:34.979Z,100216.09
2019-05-01T07:05:01.585Z,100213.08
2019-05-01T07:07:31.753Z,100214.85
2019-05-01T07:10:00.514Z,100220.34
2019-05-01T07:12:31.365Z,100219.09
2019-05-01T07:15:01.311Z,100222.64
2019-05-01T07:17:29.335Z,100226.73
2019-05-01T07:20:16.814Z,100229.48
2019-05-01T07:22:46.586Z,100215.30
2019-05-01T07:25:15.035Z,100220.47
2019-05-01T07:27:42.905Z,100221.02
2019-05-01T07:30:33.120Z,100218.09
2019-05-01T07:33:01.403Z,100214.78
2019-05-01T07:35:32.988Z,100212.92
2019-05-01T07:38:02.357Z,100201.32
2019-05-01T07:40:30.242Z,100199.53
2019-05-01T07:43:04.333Z,100203.48
2019-05-01T07:45:54.690Z,100203.58
2019-05-01T07:48:36.074Z,100204.28
2019-05-01T07:51:07.019Z,100197.73
2019-05-01T07:53:36.822Z,100201.69
2019-05-01T07:56:07.646Z,100195.63
2019-05-01T07:58:35.813Z,100197.14
2019-05-01T08:01:13.143Z,100205.21
2019-05-01T08:03:42.696Z,100210.86
2019-05-01T08:06:08.662Z,100214.94
2019-05-01T08:08:39.650Z,100206.86
2019-05-01T08:11:10.153Z,100211.96
2019-05-01T08:13:36.368Z,100217.36
2019-05-01T08:16:07.130Z,100220.25
2019-05-01T08:18:40.990Z,100220.20
2019-05-01T08:21:26.212Z,100221.00
2019-05-01T08:23:52.716Z,100224.94
2019-05-01T08:26:20.541Z,100221.25
2019-05-01T08:29:20.118Z,100232.55
2019-05-01T08:32:10.305Z,100236.91
2019-05-01T08:34:48.404Z,100231.19
2019-05-01T08:37:08.347Z,100236.72
2019-05-01T08:39:39.775Z,100235.25
2019-05-01T08:42:07.062Z,100231.70
2019-05-01T08:44:43.289Z,100235.25
2019-05-01T08:47:20.780Z,100225.67
2019-05-01T08:50:01.859Z,100228.59
2019-05-01T08:52:29.651Z,100215.74
2019-05-01T08:54:57.471Z,100213.06
2019-05-01T08:57:29.014Z,100208.59
2019-05-01T09:00:00.391Z,100203.93
2019-05-01T09:02:25.722Z,100204.02
2019-05-01T09:05:02.111Z,100208.55
2019-05-01T09:07:24.157Z,100210.56
2019-05-01T09:09:52.045Z,100213.95
2019-05-01T09:12:19.837Z,100219.50
2019-05-01T09:14:47.747Z,100218.91
2019-05-01T09:17:15.597Z,100214.83
2019-05-01T09:19:43.496Z,100225.05
2019-05-01T09:22:11.446Z,100229.42
2019-05-01T09:24:39.775Z,100221.43
2019-05-01T09:27:33.184Z,100218.58
2019-05-01T09:30:07.454Z,100205.20
2019-05-01T09:32:35.301Z,100206.32
2019-05-01T09:35:15.079Z,100205.13
2019-05-01T09:37:33.639Z,100205.34
2019-05-01T09:40:04.086Z,100201.17
2019-05-01T09:42:31.212Z,100196.47
2019-05-01T09:45:01.166Z,100190.58
2019-05-01T09:47:29.005Z,100189.56
2019-05-01T09:49:57.377Z,100179.89
2019-05-01T09:53:00.989Z,100179.90
2019-05-01T09:55:35.495Z,100183.24
2019-05-01T09:58:03.320Z,100180.75
2019-05-01T10:00:32.585Z,100173.83
2019-05-01T10:03:00.420Z,100169.25
2019-05-01T10:05:29.238Z,100165.22
2019-05-01T10:08:00.075Z,100164.49
2019-05-01T10:10:29.249Z,100155.52
2019-05-01T10:12:56.782Z,100165.11
2019-05-01T10:15:24.670Z,100163.39
2019-05-01T10:17:52.563Z,100148.35
2019-05-01T10:20:20.415Z,100162.20
2019-05-01T10:22:48.276Z,100164.78
2019-05-01T10:25:16.503Z,100157.48
2019-05-01T10:27:52.742Z,100159.34
2019-05-01T10:30:31.615Z,100152.95
2019-05-01T10:33:06.723Z,100150.41
2019-05-01T10:36:05.957Z,100147.83
2019-05-01T10:38:33.757Z,100149.22
2019-05-01T10:41:04.189Z,100153.41
2019-05-01T10:43:31.304Z,100149.17
2019-05-01T10:45:59.157Z,100138.09
2019-05-01T10:48:27.007Z,100148.69
2019-05-01T10:50:54.801Z,100142.20
2019-05-01T10:53:22.759Z,100128.01
2019-05-01T10:55:50.606Z,100135.18
2019-05-01T10:58:20.250Z,100127.83
2019-05-01T11:00:51.213Z,100128.41
2019-05-01T11:03:19.051Z,100128.69
2019-05-01T11:05:55.786Z,100129.30
2019-05-01T11:08:17.219Z,100127.37
2019-05-01T11:10:45.045Z,100131.10
2019-05-01T11:13:12.922Z,100126.63
2019-05-01T11:15:40.770Z,100125.79
2019-05-01T11:18:08.722Z,100126.22
2019-05-01T11:20:36.696Z,100125.18
2019-05-01T11:23:04.678Z,100121.51
2019-05-01T11:25:33.107Z,100122.09
2019-05-01T11:28:00.940Z,100115.69
2019-05-01T11:30:28.816Z,100117.16
2019-05-01T11:33:05.189Z,100110.95
2019-05-01T11:35:51.003Z,100111.45
2019-05-01T11:38:44.466Z,100113.75
2019-05-01T11:41:25.842Z,100110.22
2019-05-01T11:43:53.803Z,100114.23
2019-05-01T11:46:21.627Z,100112.98
2019-05-01T11:48:49.435Z,100101.13
2019-05-01T11:51:17.263Z,100098.48
2019-05-01T11:53:45.064Z,100096.36
2019-05-01T11:56:12.948Z,100091.37
2019-05-01T11:58:40.771Z,100099.95
2019-05-01T12:01:10.467Z,100089.27
2019-05-01T12:03:38.323Z,100092.42
2019-05-01T12:06:06.145Z,100097.08
2019-05-01T12:08:34.036Z,100098.09
2019-05-01T12:11:03.823Z,100086.31
2019-05-01T12:13:43.206Z,100077.87
2019-05-01T12:16:08.393Z,100078.16
2019-05-01T12:18:36.183Z,100087.66
2019-05-01T12:21:03.997Z,100074.19
2019-05-01T12:23:31.773Z,100075.17
2019-05-01T12:25:59.581Z,100075.25
2019-05-01T12:28:27.383Z,100080.45
2019-05-01T12:30:55.226Z,100077.31
2019-05-01T12:33:22.997Z,100072.97
2019-05-01T12:35:53.023Z,100066.10
2019-05-01T12:38:20.863Z,100069.80
2019-05-01T12:41:06.913Z,100062.42
2019-05-01T12:43:34.709Z,100061.30
2019-05-01T12:46:02.601Z,100056.73
2019-05-01T12:48:30.420Z,100059.42
2019-05-01T12:50:58.331Z,100061.30
2019-05-01T12:53:38.284Z,100050.46
2019-05-01T12:56:18.407Z,100059.84
2019-05-01T12:58:47.731Z,100052.76
2019-05-01T13:01:15.657Z,100045.44
2019-05-01T13:03:43.482Z,100040.92
2019-05-01T13:06:14.306Z,100031.91
2019-05-01T13:08:41.050Z,100047.09
2019-05-01T13:11:08.872Z,100049.20
2019-05-01T13:13:36.698Z,100041.48
2019-05-01T13:16:04.546Z,100042.61
2019-05-01T13:18:32.341Z,100021.92
2019-05-01T13:21:00.164Z,100030.56
2019-05-01T13:23:28.024Z,100036.37
2019-05-01T13:26:00.826Z,100024.88
2019-05-01T13:28:42.134Z,100022.95
2019-05-01T13:31:41.967Z,100028.13
2019-05-01T13:34:10.219Z,100011.62
2019-05-01T13:36:38.086Z,100000.05
2019-05-01T13:39:09.474Z,99997.06
2019-05-01T13:41:37.258Z,100000.41
2019-05-01T13:44:05.221Z,99999.61
2019-05-01T13:46:33.051Z,99994.88
2019-05-01T13:49:00.880Z,99994.72
2019-05-01T13:51:28.778Z,99995.98
2019-05-01T13:53:56.693Z,99987.67
2019-05-01T13:56:24.590Z,99985.14
2019-05-01T13:58:52.417Z,99976.45
2019-05-01T14:01:20.467Z,99979.02
2019-05-01T14:03:48.264Z,99972.38
2019-05-01T14:06:16.066Z,99975.34
2019-05-01T14:08:43.884Z,99970.64
2019-05-01T14:11:11.731Z,99965.31
2019-05-01T14:13:39.547Z,99965.06
2019-05-01T14:16:07.357Z,99974.20
2019-05-01T14:18:35.193Z,99963.58
2019-05-01T14:21:12.442Z,99966.94
2019-05-01T14:23:56.636Z,99968.14
2019-05-01T14:26:24.450Z,99967.11
2019-05-01T14:28:52.215Z,99960.02
2019-05-01T14:31:20.053Z,99964.64
2019-05-01T14:33:47.849Z,99962.58
2019-05-01T14:36:15.687Z,99957.99
2019-05-01T14:38:43.497Z,99953.34
2019-05-01T14:41:11.345Z,99945.71
2019-05-01T14:43:39.249Z,99951.98
2019-05-01T14:46:07.082Z,99951.56
2019-05-01T14:48:34.906Z,99951.86
2019-05-01T14:51:03.044Z,99949.17
2019-05-01T14:53:30.876Z,99942.64
2019-05-01T14:55:58.668Z,99935.13
2019-05-01T14:58:26.476Z,99946.68
2019-05-01T15:00:54.298Z,99940.20
2019-05-01T15:03:22.154Z,99944.95
2019-05-01T15:05:49.969Z,99952.27
2019-05-01T15:08:17.774Z,99938.56
2019-05-01T15:10:45.653Z,99939.05
2019-05-01T15:13:28.753Z,99937.83
2019-05-01T15:16:22.352Z,99933.55
2019-05-01T15:19:09.722Z,99928.93
2019-05-01T15:21:37.527Z,99927.47
2019-05-01T15:24:05.506Z,99933.47
2019-05-01T15:26:33.344Z,99930.71
2019-05-01T15:29:01.222Z,99925.81
2019-05-01T15:31:29.147Z,99925.96
2019-05-01T15:33:56.960Z,99921.77
2019-05-01T15:36:24.783Z,99921.24
2019-05-01T15:38:52.605Z,99926.50
2019-05-01T15:41:52.169Z,99915.85
2019-05-01T15:44:26.278Z,99910.81
2019-05-01T15:46:54.123Z,99916.55
2019-05-01T15:49:21.954Z,99915.45
2019-05-01T15:51:49.876Z,99915.25
2019-05-01T15:54:17.676Z,99912.95
2019-05-01T15:56:45.515Z,99912.89
2019-05-01T15:59:13.372Z,99903.96
2019-05-01T16:01:41.187Z,99906.02
2019-05-01T16:04:09.004Z,99902.16
2019-05-01T16:06:36.804Z,99893.75
2019-05-01T16:09:06.522Z,99902.50
2019-05-01T16:11:54.120Z,99903.91
2019-05-01T16:14:22.145Z,99903.73
2019-05-01T16:16:49.985Z,99896.41
2019-05-01T16:19:17.836Z,99893.00
2019-05-01T16:21:45.707Z,99900.41
2019-05-01T16:24:13.503Z,99900.78
2019-05-01T16:26:41.335Z,99899.84
2019-05-01T16:29:09.138Z,99894.09
2019-05-01T16:31:36.978Z,99905.48
2019-05-01T16:34:04.789Z,99896.20
2019-05-01T16:36:32.681Z,99895.02
2019-05-01T16:39:18.549Z,99891.02
2019-05-01T16:41:46.906Z,99888.41
2019-05-01T16:44:15.611Z,99894.33
2019-05-01T16:46:43.434Z,99888.22
2019-05-01T16:49:11.302Z,99881.44
2019-05-01T16:51:39.101Z,99881.42
2019-05-01T16:54:08.046Z,99876.70
2019-05-01T16:56:36.011Z,99882.41
2019-05-01T16:59:04.370Z,99877.58
2019-05-01T17:02:03.682Z,99874.64
2019-05-01T17:05:02.936Z,99868.34
2019-05-01T17:07:48.804Z,99877.71
2019-05-01T17:10:31.643Z,99870.05
2019-05-01T17:12:59.486Z,99872.92
2019-05-01T17:15:31.826Z,99871.03
2019-05-01T17:17:59.660Z,99868.70
2019-05-01T17:20:27.797Z,99876.90
2019-05-01T17:22:55.645Z,99875.86
2019-05-01T17:25:23.480Z,99869.61
2019-05-01T17:27:51.310Z,99865.72
2019-05-01T17:30:35.794Z,99874.61
2019-05-01T17:33:03.619Z,99870.58
2019-05-01T17:35:31.502Z,99868.77
2019-05-01T17:37:59.291Z,99868.28
2019-05-01T17:40:27.195Z,99862.02
2019-05-01T17:42:55.042Z,99866.94
2019-05-01T17:45:23.091Z,99864.84
2019-05-01T17:47:52.845Z,99866.82
2019-05-01T17:50:21.410Z,99869.55
2019-05-01T17:52:50.298Z,99874.74
2019-05-01T17:55:18.183Z,99872.88
2019-05-01T17:57:46.046Z,99869.89
2019-05-01T18:00:33.577Z,99874.51
2019-05-01T18:03:08.201Z,99872.64
2019-05-01T18:06:13.531Z,99869.91
2019-05-01T18:08:41.381Z,99864.72
2019-05-01T18:11:13.598Z,99867.73
2019-05-01T18:13:38.971Z,99862.28
2019-05-01T18:16:06.760Z,99865.59
2019-05-01T18:18:34.579Z,99866.66
2019-05-01T18:21:02.591Z,99872.13
2019-05-01T18:23:49.474Z,99872.38
2019-05-01T18:26:38.896Z,99868.57
2019-05-01T18:29:16.838Z,99869.11
2019-05-01T18:31:44.764Z,99859.84
2019-05-01T18:34:12.581Z,99859.53
2019-05-01T18:36:46.031Z,99860.09
2019-05-01T18:39:25.983Z,99855.72
2019-05-01T18:41:55.765Z,99858.42
2019-05-01T18:44:23.609Z,99860.31
2019-05-01T18:46:51.640Z,99857.86
2019-05-01T18:49:19.481Z,99859.20
2019-05-01T18:51:48.150Z,99861.66
2019-05-01T18:54:15.925Z,99865.17
2019-05-01T18:56:43.795Z,99863.55
2019-05-01T18:59:11.599Z,99867.61
2019-05-01T19:01:39.422Z,99864.33
2019-05-01T19:04:07.238Z,99865.17
2019-05-01T19:06:41.280Z,99865.14
2019-05-01T19:09:14.859Z,99868.95
2019-05-01T19:11:37.557Z,99873.03
2019-05-01T19:14:05.698Z,99870.84
2019-05-01T19:16:33.602Z,99871.69
2019-05-01T19:19:03.866Z,99877.91
2019-05-01T19:21:32.818Z,99874.89
2019-05-01T19:24:02.362Z,99872.47
2019-05-01T19:26:30.480Z,99872.17
2019-05-01T19:28:58.564Z,99875.93
2019-05-01T19:31:26.619Z,99877.83
2019-05-01T19:33:54.520Z,99874.23
2019-05-01T19:36:22.336Z,99873.65
2019-05-01T19:38:50.218Z,99871.20
2019-05-01T19:41:18.079Z,99871.17
2019-05-01T19:43:45.963Z,99866.54
2019-05-01T19:46:13.867Z,99867.87
2019-05-01T19:48:45.273Z,99870.86
2019-05-01T19:51:11.508Z,99861.39
2019-05-01T19:53:39.480Z,99861.66
2019-05-01T19:56:07.482Z,99864.63
2019-05-01T19:58:35.431Z,99861.34
2019-05-01T20:01:04.928Z,99859.66
2019-05-01T20:03:36.056Z,99856.09
2019-05-01T20:06:05.341Z,99859.66
2019-05-01T20:08:32.786Z,99864.80
2019-05-01T20:11:00.720Z,99861.23
2019-05-01T20:13:28.625Z,99859.52
2019-05-01T20:15:56.563Z,99857.59
2019-05-01T20:18:24.397Z,99859.18
2019-05-01T20:20:52.327Z,99852.81
2019-05-01T20:23:20.163Z,99857.75
2019-05-01T20:25:51.069Z,99855.22
2019-05-01T20:28:19.862Z,99852.17
2019-05-01T20:30:49.580Z,99850.92
2019-05-01T20:33:17.144Z,99854.17
2019-05-01T20:35:44.938Z,99841.91
2019-05-01T20:38:12.758Z,99853.94
2019-05-01T20:40:40.595Z,99850.43
2019-05-01T20:43:08.428Z,99850.73
2019-05-01T20:45:36.348Z,99848.02
2019-05-01T20:48:04.324Z,99847.68
2019-05-01T20:50:32.158Z,99848.21
2019-05-01T20:53:00.055Z,99849.60
2019-05-01T20:55:27.727Z,99839.53
2019-05-01T20:58:15.086Z,99843.23
2019-05-01T21:00:43.308Z,99838.52
2019-05-01T21:03:14.231Z,99848.06
2019-05-01T21:05:52.564Z,99841.23
2019-05-01T21:08:51.909Z,99835.16
2019-05-01T21:11:23.882Z,99830.89
2019-05-01T21:13:56.663Z,99841.91
2019-05-01T21:16:21.775Z,99831.27
2019-05-01T21:18:49.571Z,99840.19
2019-05-01T21:21:17.405Z,99834.94
2019-05-01T21:23:48.174Z,99832.48
2019-05-01T21:26:15.842Z,99834.89
2019-05-01T21:28:44.876Z,99847.31
2019-05-01T21:31:13.808Z,99837.50
2019-05-01T21:33:46.343Z,99834.17
2019-05-01T21:36:11.385Z,99836.05
2019-05-01T21:38:39.178Z,99836.00
2019-05-01T21:41:07.135Z,99827.97
2019-05-01T21:43:37.021Z,99827.97
2019-05-01T21:46:04.700Z,99825.47
2019-05-01T21:48:33.401Z,99826.30
2019-05-01T21:51:03.382Z,99824.73
2019-05-01T21:53:32.793Z,99815.76
2019-05-01T21:56:02.119Z,99828.96
2019-05-01T21:58:33.271Z,99818.20
2019-05-01T22:01:01.145Z,99816.59
2019-05-01T22:03:29.221Z,99816.16
2019-05-01T22:05:57.038Z,99819.72
2019-05-01T22:08:25.933Z,99811.95
2019-05-01T22:10:57.488Z,99814.41
2019-05-01T22:13:24.345Z,99808.66
2019-05-01T22:15:58.330Z,99813.58
2019-05-01T22:18:34.941Z,99806.27
2019-05-01T22:21:18.074Z,99806.14
2019-05-01T22:24:04.200Z,99798.26
2019-05-01T22:26:34.573Z,99802.59
2019-05-01T22:29:04.877Z,99800.41
2019-05-01T22:32:01.237Z,99794.94
2019-05-01T22:34:54.245Z,99792.27
2019-05-01T22:37:22.210Z,99794.00
2019-05-01T22:39:55.543Z,99794.23
2019-05-01T22:42:23.369Z,99792.55
2019-05-01T22:44:51.171Z,99790.36
2019-05-01T22:47:19.087Z,99794.69
2019-05-01T22:49:46.996Z,99793.03
2019-05-01T22:52:14.892Z,99793.23
2019-05-01T22:54:44.807Z,99785.84
2019-05-01T22:57:12.982Z,99783.64
2019-05-01T22:59:40.775Z,99780.16
2019-05-01T23:02:15.570Z,99772.80
2019-05-01T23:04:43.353Z,99772.42
2019-05-01T23:07:11.763Z,99774.77
2019-05-01T23:09:40.950Z,99774.39
2019-05-01T23:12:08.748Z,99774.08
2019-05-01T23:14:36.592Z,99774.19
2019-05-01T23:17:22.813Z,99769.43
2019-05-01T23:19:50.749Z,99769.05
2019-05-01T23:22:19.292Z,99766.41
2019-05-01T23:24:47.144Z,99764.66
2019-05-01T23:27:14.956Z,99757.81
2019-05-01T23:29:42.723Z,99757.12
2019-05-01T23:32:11.533Z,99749.76
2019-05-01T23:34:39.351Z,99759.14
2019-05-01T23:37:07.276Z,99747.19
2019-05-01T23:39:40.257Z,99751.75
2019-05-01T23:42:04.825Z,99746.64
2019-05-01T23:44:32.630Z,99750.65
2019-05-01T23:47:00.408Z,99741.63
2019-05-01T23:49:28.236Z,99735.17
2019-05-01T23:51:58.722Z,99731.54
2019-05-01T23:54:25.707Z,99733.17
2019-05-01T23:56:53.459Z,99728.78
2019-05-01T23:59:21.392Z,99721.69
